KLE YSHL-YSCB
Flight info
| Callsign | KLE |
|---|---|
| Flight time | 0h 57m |
| Altitude | 6500 |
| Route | DCT |
| Aircraft | P28A/L-S/LB1 |
Departure
| Time | 2026-04-25 01:43 |
|---|---|
| Airport | Shellharbour Airport (YSHL) |
Arrival
| Time | 2026-04-25 02:40 |
|---|---|
| Airport | Canberra Airport (YSCB) |
| Time | Latitude | Longitude | Altitude | Speed | Heading |
|---|---|---|---|---|---|
| 2026-04-25 01:37 | -34.55863 | 150.78891 | 30 ft | 0 kts | 352° |
| 2026-04-25 01:38 | -34.55862 | 150.78891 | 30 ft | 0 kts | 352° |
| 2026-04-25 01:39 | -34.55846 | 150.78869 | 30 ft | 7 kts | 264° |
| 2026-04-25 01:40 | -34.55836 | 150.78820 | 30 ft | 6 kts | 347° |
| 2026-04-25 01:40 | -34.55800 | 150.78811 | 31 ft | 5 kts | 348° |
| 2026-04-25 01:40 | -34.55765 | 150.78802 | 31 ft | 5 kts | 348° |
| 2026-04-25 01:40 | -34.55726 | 150.78791 | 31 ft | 6 kts | 342° |
| 2026-04-25 01:41 | -34.55683 | 150.78764 | 30 ft | 8 kts | 348° |
| 2026-04-25 01:41 | -34.55629 | 150.78748 | 29 ft | 9 kts | 349° |
| 2026-04-25 01:41 | -34.55573 | 150.78735 | 29 ft | 8 kts | 350° |
| 2026-04-25 01:41 | -34.55530 | 150.78726 | 29 ft | 5 kts | 340° |
| 2026-04-25 01:42 | -34.55514 | 150.78699 | 30 ft | 3 kts | 271° |
| 2026-04-25 01:42 | -34.55515 | 150.78671 | 30 ft | 4 kts | 267° |
| 2026-04-25 01:42 | -34.55529 | 150.78625 | 31 ft | 8 kts | 184° |
| 2026-04-25 01:42 | -34.55653 | 150.78650 | 29 ft | 40 kts | 170° |
| 2026-04-25 01:43 | -34.56086 | 150.78748 | 54 ft | 81 kts | 166° |
| 2026-04-25 01:43 | -34.56677 | 150.78856 | 262 ft | 87 kts | 168° |
| 2026-04-25 01:43 | -34.57262 | 150.78982 | 584 ft | 85 kts | 164° |
| 2026-04-25 01:43 | -34.57801 | 150.79172 | 839 ft | 80 kts | 135° |
| 2026-04-25 01:44 | -34.58011 | 150.79750 | 1024 ft | 76 kts | 86° |
| 2026-04-25 01:44 | -34.58020 | 150.80403 | 1286 ft | 77 kts | 77° |
| 2026-04-25 01:44 | -34.57734 | 150.80877 | 1582 ft | 71 kts | 20° |
| 2026-04-25 01:44 | -34.57242 | 150.80875 | 1882 ft | 68 kts | 352° |
| 2026-04-25 01:45 | -34.56773 | 150.80768 | 2135 ft | 71 kts | 346° |
| 2026-04-25 01:45 | -34.56323 | 150.80563 | 2416 ft | 67 kts | 317° |
| 2026-04-25 01:45 | -34.56233 | 150.79942 | 2606 ft | 81 kts | 273° |
| 2026-04-25 01:45 | -34.56278 | 150.79279 | 2883 ft | 79 kts | 275° |
| 2026-04-25 01:46 | -34.56358 | 150.78631 | 3135 ft | 80 kts | 248° |
| 2026-04-25 01:46 | -34.56577 | 150.78002 | 3253 ft | 81 kts | 259° |
| 2026-04-25 01:46 | -34.56720 | 150.77352 | 3480 ft | 78 kts | 263° |
| 2026-04-25 01:46 | -34.56826 | 150.76707 | 3700 ft | 78 kts | 265° |
| 2026-04-25 01:47 | -34.56960 | 150.76054 | 3887 ft | 83 kts | 263° |
| 2026-04-25 01:47 | -34.57078 | 150.75382 | 4079 ft | 82 kts | 267° |
| 2026-04-25 01:47 | -34.57202 | 150.74690 | 4291 ft | 83 kts | 261° |
| 2026-04-25 01:47 | -34.57361 | 150.74014 | 4479 ft | 87 kts | 261° |
| 2026-04-25 01:48 | -34.57507 | 150.73337 | 4740 ft | 76 kts | 267° |
| 2026-04-25 01:48 | -34.57571 | 150.72696 | 4915 ft | 76 kts | 271° |
| 2026-04-25 01:48 | -34.57629 | 150.72045 | 5098 ft | 80 kts | 267° |
| 2026-04-25 01:48 | -34.57738 | 150.71369 | 5312 ft | 81 kts | 266° |
| 2026-04-25 01:49 | -34.57854 | 150.70712 | 5492 ft | 80 kts | 263° |
| 2026-04-25 01:49 | -34.57956 | 150.70025 | 5634 ft | 87 kts | 266° |
| 2026-04-25 01:49 | -34.58048 | 150.69304 | 5919 ft | 83 kts | 264° |
| 2026-04-25 01:49 | -34.58165 | 150.68620 | 6094 ft | 86 kts | 265° |
| 2026-04-25 01:50 | -34.58226 | 150.67903 | 6285 ft | 83 kts | 269° |
| 2026-04-25 01:50 | -34.58280 | 150.67197 | 6444 ft | 86 kts | 269° |
| 2026-04-25 01:50 | -34.58349 | 150.66444 | 6507 ft | 96 kts | 267° |
| 2026-04-25 01:50 | -34.58427 | 150.65627 | 6504 ft | 97 kts | 266° |
| 2026-04-25 01:51 | -34.58533 | 150.64824 | 6602 ft | 94 kts | 264° |
| 2026-04-25 01:51 | -34.58663 | 150.64025 | 6578 ft | 100 kts | 263° |
| 2026-04-25 01:51 | -34.58832 | 150.63183 | 6564 ft | 105 kts | 262° |
| 2026-04-25 01:51 | -34.58979 | 150.62299 | 6534 ft | 108 kts | 264° |
| 2026-04-25 01:52 | -34.59122 | 150.61428 | 6518 ft | 103 kts | 265° |
| 2026-04-25 01:52 | -34.59273 | 150.60592 | 6517 ft | 101 kts | 264° |
| 2026-04-25 01:52 | -34.59382 | 150.59746 | 6454 ft | 102 kts | 278° |
| 2026-04-25 01:52 | -34.59304 | 150.58899 | 6452 ft | 97 kts | 279° |
| 2026-04-25 01:53 | -34.59293 | 150.58091 | 6474 ft | 97 kts | 271° |
| 2026-04-25 01:53 | -34.59445 | 150.57283 | 6456 ft | 100 kts | 263° |
| 2026-04-25 01:53 | -34.59636 | 150.56447 | 6471 ft | 102 kts | 261° |
| 2026-04-25 01:53 | -34.59841 | 150.55640 | 6535 ft | 101 kts | 258° |
| 2026-04-25 01:54 | -34.60067 | 150.54817 | 6599 ft | 103 kts | 260° |
| 2026-04-25 01:54 | -34.60282 | 150.53985 | 6682 ft | 104 kts | 258° |
| 2026-04-25 01:54 | -34.60501 | 150.53105 | 6642 ft | 112 kts | 257° |
| 2026-04-25 01:54 | -34.60725 | 150.52162 | 6560 ft | 115 kts | 259° |
| 2026-04-25 01:55 | -34.60934 | 150.51220 | 6521 ft | 114 kts | 259° |
| 2026-04-25 01:55 | -34.61124 | 150.50322 | 6523 ft | 110 kts | 260° |
| 2026-04-25 01:55 | -34.61304 | 150.49425 | 6484 ft | 108 kts | 264° |
| 2026-04-25 01:55 | -34.61444 | 150.48542 | 6471 ft | 104 kts | 264° |
| 2026-04-25 01:56 | -34.61604 | 150.47710 | 6491 ft | 100 kts | 264° |
| 2026-04-25 01:56 | -34.61750 | 150.46898 | 6485 ft | 96 kts | 263° |
| 2026-04-25 01:56 | -34.61866 | 150.46111 | 6472 ft | 94 kts | 266° |
| 2026-04-25 01:56 | -34.61973 | 150.45334 | 6520 ft | 94 kts | 263° |
| 2026-04-25 01:57 | -34.62182 | 150.43693 | 6542 ft | 101 kts | 265° |
| 2026-04-25 01:57 | -34.62273 | 150.42827 | 6548 ft | 106 kts | 267° |
| 2026-04-25 01:57 | -34.62389 | 150.41954 | 6532 ft | 104 kts | 259° |
| 2026-04-25 01:58 | -34.62578 | 150.41115 | 6582 ft | 103 kts | 260° |
| 2026-04-25 01:58 | -34.62752 | 150.40288 | 6575 ft | 101 kts | 259° |
| 2026-04-25 01:58 | -34.62938 | 150.39461 | 6588 ft | 101 kts | 260° |
| 2026-04-25 01:58 | -34.63106 | 150.38635 | 6667 ft | 99 kts | 262° |
| 2026-04-25 01:59 | -34.63267 | 150.37810 | 6677 ft | 104 kts | 259° |
| 2026-04-25 01:59 | -34.63468 | 150.36915 | 6574 ft | 114 kts | 257° |
| 2026-04-25 01:59 | -34.63706 | 150.35995 | 6560 ft | 112 kts | 256° |
| 2026-04-25 01:59 | -34.63968 | 150.35108 | 6546 ft | 114 kts | 254° |
| 2026-04-25 02:00 | -34.64251 | 150.34229 | 6519 ft | 111 kts | 253° |
| 2026-04-25 02:00 | -34.64492 | 150.33350 | 6503 ft | 108 kts | 258° |
| 2026-04-25 02:00 | -34.64696 | 150.32483 | 6513 ft | 108 kts | 258° |
| 2026-04-25 02:00 | -34.64889 | 150.31608 | 6535 ft | 107 kts | 260° |
| 2026-04-25 02:01 | -34.65085 | 150.30730 | 6538 ft | 108 kts | 261° |
| 2026-04-25 02:01 | -34.65242 | 150.29848 | 6557 ft | 107 kts | 263° |
| 2026-04-25 02:01 | -34.65395 | 150.28964 | 6536 ft | 109 kts | 262° |
| 2026-04-25 02:01 | -34.65597 | 150.28068 | 6528 ft | 111 kts | 258° |
| 2026-04-25 02:02 | -34.65825 | 150.27183 | 6536 ft | 109 kts | 257° |
| 2026-04-25 02:02 | -34.66039 | 150.26292 | 6538 ft | 109 kts | 259° |
| 2026-04-25 02:02 | -34.66242 | 150.25406 | 6560 ft | 108 kts | 258° |
| 2026-04-25 02:02 | -34.66453 | 150.24524 | 6574 ft | 111 kts | 256° |
| 2026-04-25 02:03 | -34.66711 | 150.23621 | 6564 ft | 113 kts | 254° |
| 2026-04-25 02:03 | -34.66954 | 150.22733 | 6581 ft | 112 kts | 257° |
| 2026-04-25 02:03 | -34.67206 | 150.21822 | 6553 ft | 113 kts | 254° |
| 2026-04-25 02:03 | -34.67447 | 150.20926 | 6555 ft | 114 kts | 256° |
| 2026-04-25 02:04 | -34.67650 | 150.20012 | 6572 ft | 109 kts | 260° |
| 2026-04-25 02:04 | -34.67821 | 150.19109 | 6538 ft | 110 kts | 260° |
| 2026-04-25 02:04 | -34.67998 | 150.18201 | 6557 ft | 110 kts | 260° |
| 2026-04-25 02:04 | -34.68134 | 150.17280 | 6536 ft | 110 kts | 269° |
| 2026-04-25 02:05 | -34.68244 | 150.16369 | 6540 ft | 109 kts | 260° |
| 2026-04-25 02:05 | -34.68353 | 150.15770 | 6526 ft | 109 kts | 262° |
| 2026-04-25 02:05 | -34.68500 | 150.14877 | 6542 ft | 108 kts | 261° |
| 2026-04-25 02:05 | -34.68670 | 150.13676 | 6508 ft | 108 kts | 265° |
| 2026-04-25 02:06 | -34.68747 | 150.13061 | 6476 ft | 109 kts | 264° |
| 2026-04-25 02:06 | -34.68869 | 150.12153 | 6487 ft | 107 kts | 265° |
| 2026-04-25 02:06 | -34.68966 | 150.11258 | 6520 ft | 107 kts | 266° |
| 2026-04-25 02:06 | -34.69067 | 150.10372 | 6534 ft | 105 kts | 262° |
| 2026-04-25 02:07 | -34.69224 | 150.09495 | 6508 ft | 107 kts | 261° |
| 2026-04-25 02:07 | -34.69358 | 150.08614 | 6505 ft | 106 kts | 263° |
| 2026-04-25 02:07 | -34.69484 | 150.07743 | 6511 ft | 106 kts | 263° |
| 2026-04-25 02:07 | -34.69618 | 150.06866 | 6509 ft | 106 kts | 262° |
| 2026-04-25 02:08 | -34.69753 | 150.05990 | 6544 ft | 105 kts | 263° |
| 2026-04-25 02:08 | -34.69882 | 150.05107 | 6529 ft | 107 kts | 263° |
| 2026-04-25 02:08 | -34.70007 | 150.04219 | 6526 ft | 105 kts | 262° |
| 2026-04-25 02:08 | -34.70156 | 150.03358 | 6522 ft | 105 kts | 261° |
| 2026-04-25 02:09 | -34.70314 | 150.02481 | 6514 ft | 107 kts | 261° |
| 2026-04-25 02:09 | -34.70469 | 150.01599 | 6523 ft | 106 kts | 261° |
| 2026-04-25 02:09 | -34.70759 | 150.00795 | 6541 ft | 107 kts | 228° |
| 2026-04-25 02:09 | -34.71436 | 150.00348 | 6474 ft | 114 kts | 212° |
| 2026-04-25 02:10 | -34.72088 | 149.99829 | 6469 ft | 111 kts | 218° |
| 2026-04-25 02:10 | -34.72712 | 149.99281 | 6483 ft | 109 kts | 220° |
| 2026-04-25 02:10 | -34.73314 | 149.98736 | 6494 ft | 107 kts | 220° |
| 2026-04-25 02:10 | -34.73928 | 149.98216 | 6512 ft | 107 kts | 217° |
| 2026-04-25 02:11 | -34.74544 | 149.97695 | 6464 ft | 111 kts | 219° |
| 2026-04-25 02:11 | -34.75168 | 149.97159 | 6507 ft | 108 kts | 218° |
| 2026-04-25 02:11 | -34.75795 | 149.96644 | 6511 ft | 109 kts | 218° |
| 2026-04-25 02:11 | -34.76424 | 149.96115 | 6513 ft | 110 kts | 218° |
| 2026-04-25 02:12 | -34.77056 | 149.95602 | 6531 ft | 109 kts | 217° |
| 2026-04-25 02:12 | -34.77701 | 149.95098 | 6510 ft | 111 kts | 219° |
| 2026-04-25 02:12 | -34.78320 | 149.94541 | 6516 ft | 108 kts | 220° |
| 2026-04-25 02:12 | -34.78922 | 149.93993 | 6518 ft | 108 kts | 220° |
| 2026-04-25 02:13 | -34.79533 | 149.93433 | 6499 ft | 110 kts | 221° |
| 2026-04-25 02:13 | -34.80137 | 149.92877 | 6524 ft | 109 kts | 219° |
| 2026-04-25 02:13 | -34.80767 | 149.92351 | 6524 ft | 110 kts | 219° |
| 2026-04-25 02:13 | -34.81396 | 149.91824 | 6542 ft | 109 kts | 217° |
| 2026-04-25 02:14 | -34.82039 | 149.91303 | 6505 ft | 112 kts | 217° |
| 2026-04-25 02:14 | -34.82674 | 149.90774 | 6522 ft | 108 kts | 218° |
| 2026-04-25 02:14 | -34.83305 | 149.90269 | 6510 ft | 108 kts | 217° |
| 2026-04-25 02:14 | -34.83956 | 149.89800 | 6489 ft | 110 kts | 213° |
| 2026-04-25 02:15 | -34.84622 | 149.89342 | 6452 ft | 111 kts | 212° |
| 2026-04-25 02:15 | -34.85303 | 149.88889 | 6446 ft | 110 kts | 212° |
| 2026-04-25 02:15 | -34.85966 | 149.88444 | 6441 ft | 110 kts | 214° |
| 2026-04-25 02:15 | -34.86620 | 149.87962 | 6467 ft | 110 kts | 216° |
| 2026-04-25 02:16 | -34.87271 | 149.87465 | 6466 ft | 111 kts | 217° |
| 2026-04-25 02:16 | -34.87923 | 149.86963 | 6489 ft | 110 kts | 215° |
| 2026-04-25 02:16 | -34.88601 | 149.86510 | 6508 ft | 110 kts | 213° |
| 2026-04-25 02:16 | -34.89260 | 149.86024 | 6520 ft | 111 kts | 215° |
| 2026-04-25 02:17 | -34.89920 | 149.85539 | 6540 ft | 111 kts | 215° |
| 2026-04-25 02:17 | -34.90577 | 149.85084 | 6546 ft | 110 kts | 214° |
| 2026-04-25 02:17 | -34.91266 | 149.84620 | 6526 ft | 111 kts | 214° |
| 2026-04-25 02:17 | -34.91914 | 149.84120 | 6523 ft | 110 kts | 219° |
| 2026-04-25 02:18 | -34.92532 | 149.83595 | 6528 ft | 109 kts | 218° |
| 2026-04-25 02:18 | -34.93150 | 149.83058 | 6517 ft | 109 kts | 221° |
| 2026-04-25 02:18 | -34.93768 | 149.82509 | 6515 ft | 110 kts | 219° |
| 2026-04-25 02:18 | -34.94403 | 149.81991 | 6525 ft | 110 kts | 218° |
| 2026-04-25 02:19 | -34.95024 | 149.81455 | 6554 ft | 109 kts | 219° |
| 2026-04-25 02:19 | -34.95659 | 149.80920 | 6511 ft | 112 kts | 220° |
| 2026-04-25 02:19 | -34.96286 | 149.80371 | 6523 ft | 110 kts | 221° |
| 2026-04-25 02:19 | -34.96905 | 149.79807 | 6483 ft | 113 kts | 223° |
| 2026-04-25 02:20 | -34.97528 | 149.79207 | 6441 ft | 113 kts | 224° |
| 2026-04-25 02:20 | -34.98123 | 149.78606 | 6419 ft | 113 kts | 224° |
| 2026-04-25 02:20 | -34.98729 | 149.78003 | 6428 ft | 111 kts | 223° |
| 2026-04-25 02:20 | -34.99299 | 149.77370 | 6416 ft | 111 kts | 227° |
| 2026-04-25 02:21 | -34.99865 | 149.76727 | 6398 ft | 112 kts | 225° |
| 2026-04-25 02:21 | -35.00457 | 149.76111 | 6402 ft | 111 kts | 224° |
| 2026-04-25 02:21 | -35.01038 | 149.75488 | 6384 ft | 111 kts | 227° |
| 2026-04-25 02:21 | -35.01600 | 149.74837 | 6360 ft | 111 kts | 227° |
| 2026-04-25 02:22 | -35.02137 | 149.74178 | 6361 ft | 109 kts | 234° |
| 2026-04-25 02:22 | -35.02620 | 149.73484 | 6371 ft | 107 kts | 233° |
| 2026-04-25 02:22 | -35.03058 | 149.72780 | 6425 ft | 100 kts | 243° |
| 2026-04-25 02:22 | -35.03407 | 149.72062 | 6444 ft | 99 kts | 246° |
| 2026-04-25 02:23 | -35.03744 | 149.71325 | 6482 ft | 100 kts | 246° |
| 2026-04-25 02:23 | -35.04087 | 149.70573 | 6452 ft | 103 kts | 245° |
| 2026-04-25 02:23 | -35.04426 | 149.69818 | 6489 ft | 101 kts | 246° |
| 2026-04-25 02:23 | -35.04761 | 149.69065 | 6501 ft | 102 kts | 245° |
| 2026-04-25 02:24 | -35.05140 | 149.68350 | 6547 ft | 101 kts | 237° |
| 2026-04-25 02:24 | -35.05578 | 149.67649 | 6517 ft | 106 kts | 238° |
| 2026-04-25 02:24 | -35.06009 | 149.66897 | 6497 ft | 109 kts | 240° |
| 2026-04-25 02:24 | -35.06423 | 149.66140 | 6523 ft | 106 kts | 242° |
| 2026-04-25 02:25 | -35.06828 | 149.65389 | 6535 ft | 106 kts | 242° |
| 2026-04-25 02:25 | -35.07225 | 149.64632 | 6523 ft | 105 kts | 242° |
| 2026-04-25 02:25 | -35.07621 | 149.63873 | 6519 ft | 106 kts | 241° |
| 2026-04-25 02:25 | -35.08059 | 149.63135 | 6499 ft | 108 kts | 237° |
| 2026-04-25 02:26 | -35.08495 | 149.62418 | 6500 ft | 105 kts | 238° |
| 2026-04-25 02:26 | -35.08931 | 149.61684 | 6456 ft | 106 kts | 240° |
| 2026-04-25 02:26 | -35.09344 | 149.60951 | 6509 ft | 102 kts | 238° |
| 2026-04-25 02:26 | -35.09771 | 149.60249 | 6517 ft | 103 kts | 237° |
| 2026-04-25 02:27 | -35.10195 | 149.59532 | 6523 ft | 105 kts | 239° |
| 2026-04-25 02:27 | -35.10628 | 149.58797 | 6515 ft | 107 kts | 238° |
| 2026-04-25 02:27 | -35.11059 | 149.58053 | 6510 ft | 108 kts | 238° |
| 2026-04-25 02:27 | -35.11487 | 149.57302 | 6507 ft | 107 kts | 240° |
| 2026-04-25 02:28 | -35.11894 | 149.56548 | 6511 ft | 106 kts | 241° |
| 2026-04-25 02:28 | -35.12312 | 149.55810 | 6521 ft | 106 kts | 238° |
| 2026-04-25 02:28 | -35.12736 | 149.55074 | 6483 ft | 107 kts | 240° |
| 2026-04-25 02:28 | -35.13154 | 149.54313 | 6437 ft | 110 kts | 238° |
| 2026-04-25 02:29 | -35.13601 | 149.53573 | 6497 ft | 105 kts | 239° |
| 2026-04-25 02:29 | -35.13992 | 149.52805 | 6453 ft | 108 kts | 241° |
| 2026-04-25 02:29 | -35.14375 | 149.52019 | 6450 ft | 107 kts | 242° |
| 2026-04-25 02:29 | -35.14732 | 149.51223 | 6467 ft | 107 kts | 246° |
| 2026-04-25 02:30 | -35.15134 | 149.50458 | 6442 ft | 109 kts | 235° |
| 2026-04-25 02:30 | -35.15586 | 149.49714 | 6452 ft | 107 kts | 239° |
| 2026-04-25 02:30 | -35.15989 | 149.48955 | 6465 ft | 108 kts | 241° |
| 2026-04-25 02:30 | -35.16379 | 149.48188 | 6484 ft | 105 kts | 242° |
| 2026-04-25 02:31 | -35.16763 | 149.47403 | 6464 ft | 112 kts | 243° |
| 2026-04-25 02:31 | -35.17168 | 149.46551 | 6458 ft | 119 kts | 243° |
| 2026-04-25 02:31 | -35.17612 | 149.45673 | 6467 ft | 123 kts | 241° |
| 2026-04-25 02:31 | -35.18061 | 149.44790 | 6468 ft | 125 kts | 243° |
| 2026-04-25 02:32 | -35.18499 | 149.43837 | 6387 ft | 129 kts | 245° |
| 2026-04-25 02:32 | -35.18882 | 149.42890 | 6450 ft | 119 kts | 247° |
| 2026-04-25 02:32 | -35.19218 | 149.41987 | 6492 ft | 116 kts | 247° |
| 2026-04-25 02:32 | -35.19584 | 149.41109 | 6525 ft | 116 kts | 239° |
| 2026-04-25 02:33 | -35.20042 | 149.40294 | 6550 ft | 117 kts | 238° |
| 2026-04-25 02:33 | -35.20512 | 149.39465 | 6555 ft | 118 kts | 238° |
| 2026-04-25 02:33 | -35.20961 | 149.38631 | 6579 ft | 119 kts | 241° |
| 2026-04-25 02:33 | -35.21368 | 149.37751 | 6541 ft | 120 kts | 244° |
| 2026-04-25 02:34 | -35.21772 | 149.36850 | 6529 ft | 120 kts | 244° |
| 2026-04-25 02:34 | -35.22166 | 149.35931 | 6480 ft | 123 kts | 245° |
| 2026-04-25 02:34 | -35.22551 | 149.35015 | 6364 ft | 118 kts | 245° |
| 2026-04-25 02:34 | -35.22941 | 149.34156 | 6148 ft | 115 kts | 243° |
| 2026-04-25 02:35 | -35.23352 | 149.33321 | 5919 ft | 115 kts | 241° |
| 2026-04-25 02:35 | -35.23765 | 149.32506 | 5774 ft | 110 kts | 241° |
| 2026-04-25 02:35 | -35.24170 | 149.31714 | 5622 ft | 108 kts | 242° |
| 2026-04-25 02:35 | -35.24574 | 149.30950 | 5450 ft | 107 kts | 240° |
| 2026-04-25 02:36 | -35.24986 | 149.30175 | 5256 ft | 110 kts | 242° |
| 2026-04-25 02:36 | -35.25385 | 149.29384 | 5084 ft | 109 kts | 243° |
| 2026-04-25 02:36 | -35.25775 | 149.28608 | 4995 ft | 104 kts | 243° |
| 2026-04-25 02:36 | -35.26190 | 149.27897 | 4935 ft | 105 kts | 238° |
| 2026-04-25 02:37 | -35.26639 | 149.27172 | 4748 ft | 108 kts | 237° |
| 2026-04-25 02:37 | -35.27203 | 149.26522 | 4563 ft | 110 kts | 222° |
| 2026-04-25 02:37 | -35.27838 | 149.25978 | 4365 ft | 112 kts | 221° |
| 2026-04-25 02:37 | -35.28466 | 149.25385 | 4116 ft | 115 kts | 224° |
| 2026-04-25 02:38 | -35.29105 | 149.24812 | 3997 ft | 113 kts | 220° |
| 2026-04-25 02:38 | -35.29743 | 149.24250 | 3813 ft | 113 kts | 221° |
| 2026-04-25 02:38 | -35.30378 | 149.23667 | 3609 ft | 116 kts | 224° |
| 2026-04-25 02:38 | -35.30968 | 149.23086 | 3433 ft | 102 kts | 228° |
| 2026-04-25 02:39 | -35.31469 | 149.22574 | 3237 ft | 88 kts | 227° |
| 2026-04-25 02:39 | -35.31863 | 149.22075 | 2962 ft | 77 kts | 246° |
| 2026-04-25 02:39 | -35.31903 | 149.21458 | 2674 ft | 71 kts | 290° |
| 2026-04-25 02:39 | -35.31711 | 149.20931 | 2447 ft | 65 kts | 310° |
| 2026-04-25 02:40 | -35.31434 | 149.20504 | 2231 ft | 64 kts | 310° |
| 2026-04-25 02:40 | -35.31158 | 149.20105 | 2014 ft | 63 kts | 311° |
| 2026-04-25 02:40 | -35.30887 | 149.19711 | 1877 ft | 54 kts | 312° |
| 2026-04-25 02:40 | -35.30704 | 149.19444 | 1874 ft | 20 kts | 309° |
| 2026-04-25 02:41 | -35.30690 | 149.19358 | 1874 ft | 9 kts | 276° |
| 2026-04-25 02:41 | -35.30684 | 149.19277 | 1874 ft | 7 kts | 274° |
| 2026-04-25 02:41 | -35.30684 | 149.19275 | 1874 ft | 0 kts | 275° |